KTCL/TCL METAR and TAF weather

Enter ICAO airport designator
Station Type Date Time Source
KTCL METAR 2020/09/22 02:53 UTC NOAA

KTCL 220253Z AUTO 07008KT 10SM CLR 19/12 A3025 RMK AO2 SLP240 T01890117 51013


Station Type Date Time Source
KTCL Decoded METAR 2020/09/22 02:53 UTC NOAA

TUSCALOOSA REGIONAL AIRPORT, AL, United States (KTCL) 33-13N 087-37W
Sep 21, 2020 - 10:53 PM EDT / 2020.09.22 0253 UTC
Wind: from the ENE (070 degrees) at 9 MPH (8 KT):0
Visibility: 10 mile(s):0
Sky conditions: clear
Temperature: 66.0 F (18.9 C)
Dew Point: 53.1 F (11.7 C)
Relative Humidity: 62%
Pressure (altimeter): 30.25 in. Hg (1024 hPa)
Pressure tendency: 0.04 inches (1.3 hPa) higher than three hours ago
ob: KTCL 220253Z AUTO 07008KT 10SM CLR 19/12 A3025 RMK AO2 SLP240 T01890117 51013
cycle: 3

Station Type Date Time Source
KTCL TAF 2020/09/21 18:36 UTC NOAA

TAF KTCL 211734Z 2118/2218 08011G18KT P6SM BKN250
FM212200 07008KT P6SM SCT250
FM221500 10008KT P6SM BKN200

Example: see airport list